Clearwater Beach, Florida
Current Conditions -  °F | °C
As of 9:15 PM on Saturday 22 Nov 2014 (Local Time) from KCLW Reporting Station
Broken Clouds Broken Clouds  
Wind Chill: 70°   Ceiling: 12000
Heat Index: 70°   Visibility: 10mi
Dew Point: 66°   Wind: 12mph
Humidity: 88%   Direction: 100°E
Pressure: 30.07"   Gusts: 16mph
Location:  27.98°N, 82.83°W
Report Text: KCLW 230215Z AUTO 10010G14KT 10SM BKN120 21/19 A3007 RMK AO2
Loading
Personal Weather Stations






























Interactive Weather Map New forecast layout! Learn more

10-Day Weather Forecast

Advertisements
Track Severe Weather on mobile